createdAt,value
2018-07-24T00:00:04.665Z,14.17
2018-07-24T00:02:33.430Z,18.57
2018-07-24T00:05:02.255Z,14.67
2018-07-24T00:07:31.045Z,14.80
2018-07-24T00:10:01.540Z,15.30
2018-07-24T00:12:30.269Z,13.43
2018-07-24T00:14:58.975Z,14.37
2018-07-24T00:17:27.854Z,13.70
2018-07-24T00:19:56.659Z,12.90
2018-07-24T00:22:25.746Z,14.43
2018-07-24T00:24:54.438Z,14.73
2018-07-24T00:27:23.185Z,12.70
2018-07-24T00:29:52.095Z,12.93
2018-07-24T00:32:20.829Z,13.87
2018-07-24T00:34:49.563Z,14.10
2018-07-24T00:37:18.490Z,14.87
2018-07-24T00:39:47.653Z,13.90
2018-07-24T00:42:16.374Z,13.10
2018-07-24T00:44:45.092Z,14.20
2018-07-24T00:47:13.888Z,12.40
2018-07-24T00:49:42.639Z,14.00
2018-07-24T00:52:11.396Z,13.17
2018-07-24T00:54:40.207Z,13.73
2018-07-24T00:57:08.942Z,13.63
2018-07-24T00:59:37.701Z,16.27
2018-07-24T01:02:06.486Z,13.40
2018-07-24T01:04:35.363Z,13.93
2018-07-24T01:07:04.260Z,12.97
2018-07-24T01:09:33.015Z,12.80
2018-07-24T01:12:01.732Z,13.33
2018-07-24T01:14:30.519Z,13.40
2018-07-24T01:16:59.238Z,14.17
2018-07-24T01:19:28.521Z,15.03
2018-07-24T01:21:57.259Z,13.77
2018-07-24T01:24:26.020Z,13.37
2018-07-24T01:26:54.814Z,15.00
2018-07-24T01:29:23.555Z,13.53
2018-07-24T01:31:52.354Z,13.60
2018-07-24T01:34:21.610Z,12.73
2018-07-24T01:36:50.301Z,13.97
2018-07-24T01:39:19.015Z,14.73
2018-07-24T01:41:47.825Z,14.50
2018-07-24T01:44:16.593Z,15.87
2018-07-24T01:46:45.336Z,14.40
2018-07-24T01:49:14.107Z,14.47
2018-07-24T01:51:42.842Z,14.83
2018-07-24T01:54:11.604Z,17.53
2018-07-24T01:56:40.353Z,14.80
2018-07-24T01:59:09.118Z,14.73
2018-07-24T02:01:37.908Z,14.53
2018-07-24T02:04:06.665Z,15.40
2018-07-24T02:06:35.462Z,15.07
2018-07-24T02:09:06.033Z,15.13
2018-07-24T02:11:34.755Z,15.33
2018-07-24T02:14:03.510Z,15.80
2018-07-24T02:16:32.192Z,14.27
2018-07-24T02:19:01.165Z,14.17
2018-07-24T02:21:30.410Z,15.43
2018-07-24T02:23:59.178Z,15.73
2018-07-24T02:26:27.934Z,16.20
2018-07-24T02:28:56.658Z,15.20
2018-07-24T02:31:25.441Z,15.23
2018-07-24T02:33:54.203Z,16.30
2018-07-24T02:36:22.955Z,15.30
2018-07-24T02:38:51.741Z,15.10
2018-07-24T02:41:20.474Z,14.87
2018-07-24T02:43:49.570Z,14.63
2018-07-24T02:46:18.291Z,15.10
2018-07-24T02:48:47.033Z,15.53
2018-07-24T02:51:15.872Z,16.20
2018-07-24T02:53:45.052Z,14.97
2018-07-24T02:56:13.746Z,15.03
2018-07-24T02:58:42.470Z,15.23
2018-07-24T03:01:11.233Z,16.00
2018-07-24T03:03:40.009Z,13.80
2018-07-24T03:06:08.742Z,18.77
2018-07-24T03:08:37.471Z,14.77
2018-07-24T03:11:06.272Z,14.90
2018-07-24T03:13:35.103Z,14.20
2018-07-24T03:16:03.953Z,14.83
2018-07-24T03:18:32.694Z,13.53
2018-07-24T03:21:01.512Z,16.47
2018-07-24T03:23:30.325Z,14.67
2018-07-24T03:25:59.104Z,13.97
2018-07-24T03:28:27.859Z,14.70
2018-07-24T03:30:56.683Z,14.73
2018-07-24T03:33:25.459Z,16.57
2018-07-24T03:35:54.260Z,14.83
2018-07-24T03:38:23.035Z,16.13
2018-07-24T03:40:51.987Z,13.97
2018-07-24T03:43:20.740Z,19.10
2018-07-24T03:45:49.469Z,14.47
2018-07-24T03:48:18.306Z,14.13
2018-07-24T03:50:47.104Z,14.50
2018-07-24T03:53:15.839Z,14.47
2018-07-24T03:55:44.676Z,13.97
2018-07-24T03:58:13.487Z,14.57
2018-07-24T04:00:42.337Z,17.20
2018-07-24T04:03:11.074Z,17.03
2018-07-24T04:05:39.858Z,15.00
2018-07-24T04:08:08.621Z,16.53
2018-07-24T04:10:37.480Z,13.07
2018-07-24T04:13:06.239Z,14.73
2018-07-24T04:15:35.201Z,12.90
2018-07-24T04:18:04.029Z,14.20
2018-07-24T04:20:32.743Z,16.60
2018-07-24T04:23:01.485Z,16.03
2018-07-24T04:25:30.185Z,14.57
2018-07-24T04:27:58.903Z,14.40
2018-07-24T04:30:27.618Z,14.27
2018-07-24T04:32:56.303Z,13.93
2018-07-24T04:35:25.056Z,14.37
2018-07-24T04:37:53.802Z,13.97
2018-07-24T04:40:22.551Z,14.93
2018-07-24T04:42:51.656Z,13.43
2018-07-24T04:45:20.374Z,14.57
2018-07-24T04:47:49.117Z,15.03
2018-07-24T04:50:17.945Z,19.83
2018-07-24T04:52:46.765Z,15.67
2018-07-24T04:55:14.413Z,15.07
2018-07-24T04:57:43.277Z,15.17
2018-07-24T05:00:12.246Z,15.53
2018-07-24T05:02:41.048Z,14.50
2018-07-24T05:05:10.414Z,15.60
2018-07-24T05:07:39.147Z,15.37
2018-07-24T05:10:07.947Z,15.07
2018-07-24T05:12:36.673Z,15.03
2018-07-24T05:15:05.513Z,16.60
2018-07-24T05:17:34.328Z,15.93
2018-07-24T05:20:03.089Z,16.60
2018-07-24T05:22:31.857Z,17.93
2018-07-24T05:25:00.773Z,15.60
2018-07-24T05:27:29.655Z,17.93
2018-07-24T05:29:58.451Z,16.73
2018-07-24T05:32:27.194Z,16.50
2018-07-24T05:34:55.912Z,16.57
2018-07-24T05:37:24.676Z,17.67
2018-07-24T05:39:53.402Z,19.07
2018-07-24T05:42:22.381Z,18.63
2018-07-24T05:44:51.134Z,16.60
2018-07-24T05:47:19.887Z,19.90
2018-07-24T05:49:48.690Z,17.33
2018-07-24T05:52:17.564Z,17.13
2018-07-24T05:54:46.811Z,17.33
2018-07-24T05:57:15.707Z,17.87
2018-07-24T05:59:44.590Z,17.10
2018-07-24T06:02:13.839Z,21.87
2018-07-24T06:04:42.597Z,17.20
2018-07-24T06:07:11.327Z,17.80
2018-07-24T06:09:40.151Z,17.70
2018-07-24T06:12:08.878Z,21.00
2018-07-24T06:14:37.666Z,20.37
2018-07-24T06:17:06.445Z,17.27
2018-07-24T06:19:35.459Z,16.90
2018-07-24T06:22:04.525Z,15.97
2018-07-24T06:24:33.257Z,18.00
2018-07-24T06:27:02.034Z,15.43
2018-07-24T06:29:30.779Z,15.63
2018-07-24T06:31:59.554Z,16.43
2018-07-24T06:34:28.399Z,16.27
2018-07-24T06:36:57.286Z,20.40
2018-07-24T06:39:26.205Z,16.77
2018-07-24T06:41:55.083Z,17.27
2018-07-24T06:44:23.989Z,16.27
2018-07-24T06:46:52.923Z,15.37
2018-07-24T06:49:21.638Z,15.60
2018-07-24T06:51:50.536Z,15.23
2018-07-24T06:54:19.456Z,15.73
2018-07-24T06:56:48.245Z,15.37
2018-07-24T06:59:17.037Z,16.20
2018-07-24T07:01:45.771Z,16.00
2018-07-24T07:04:14.522Z,14.30
2018-07-24T07:06:43.254Z,15.87
2018-07-24T07:09:12.041Z,15.10
2018-07-24T07:11:40.846Z,13.87
2018-07-24T07:14:09.665Z,15.77
2018-07-24T07:16:38.542Z,18.07
2018-07-24T07:19:07.375Z,14.50
2018-07-24T07:21:36.176Z,13.73
2018-07-24T07:24:05.099Z,13.93
2018-07-24T07:26:33.869Z,15.30
2018-07-24T07:29:03.072Z,13.80
2018-07-24T07:31:32.023Z,13.27
2018-07-24T07:34:00.778Z,15.27
2018-07-24T07:36:29.659Z,12.97
2018-07-24T07:38:58.408Z,13.43
2018-07-24T07:41:27.200Z,14.20
2018-07-24T07:44:02.447Z,15.00
2018-07-24T07:46:31.556Z,13.93
2018-07-24T07:49:00.388Z,12.50
2018-07-24T07:51:29.240Z,11.83
2018-07-24T07:53:58.936Z,13.50
2018-07-24T07:56:27.721Z,15.50
2018-07-24T07:58:56.499Z,12.77
2018-07-24T08:01:25.299Z,15.93
2018-07-24T08:03:54.097Z,14.00
2018-07-24T08:06:23.018Z,12.63
2018-07-24T08:08:51.742Z,13.67
2018-07-24T08:11:20.474Z,11.63
2018-07-24T08:13:49.304Z,14.57
2018-07-24T08:16:18.101Z,13.27
2018-07-24T08:18:46.837Z,12.83
2018-07-24T08:21:15.606Z,14.77
2018-07-24T08:23:44.401Z,14.70
2018-07-24T08:26:13.133Z,13.53
2018-07-24T08:28:41.899Z,14.00
2018-07-24T08:31:10.685Z,14.27
2018-07-24T08:33:39.512Z,14.60
2018-07-24T08:36:08.335Z,14.40
2018-07-24T08:38:37.116Z,13.23
2018-07-24T08:41:06.055Z,13.63
2018-07-24T08:43:34.825Z,13.50
2018-07-24T08:46:03.688Z,12.57
2018-07-24T08:48:32.744Z,11.87
2018-07-24T08:51:01.574Z,11.30
2018-07-24T08:53:30.616Z,13.70
2018-07-24T08:55:59.357Z,12.33
2018-07-24T08:58:28.162Z,13.47
2018-07-24T09:00:57.032Z,13.50
2018-07-24T09:03:26.264Z,11.83
2018-07-24T09:05:56.073Z,11.87
2018-07-24T09:08:24.834Z,13.53
2018-07-24T09:10:53.602Z,13.47
2018-07-24T09:13:22.363Z,13.60
2018-07-24T09:15:51.102Z,13.80
2018-07-24T09:18:19.858Z,14.10
2018-07-24T09:20:48.720Z,13.03
2018-07-24T09:23:17.604Z,12.50
2018-07-24T09:25:46.424Z,12.13
2018-07-24T09:28:15.139Z,10.57
2018-07-24T09:30:43.984Z,14.90
2018-07-24T09:33:12.758Z,10.73
2018-07-24T09:35:41.485Z,12.10
2018-07-24T09:38:10.228Z,11.47
2018-07-24T09:40:38.984Z,14.47
2018-07-24T09:43:07.828Z,10.57
2018-07-24T09:45:36.619Z,11.77
2018-07-24T09:48:05.560Z,13.57
2018-07-24T09:50:34.422Z,15.67
2018-07-24T09:53:03.392Z,11.80
2018-07-24T09:55:32.163Z,11.37
2018-07-24T09:58:00.921Z,11.63
2018-07-24T10:00:34.824Z,12.30
2018-07-24T10:03:03.702Z,13.57
2018-07-24T10:05:32.452Z,13.90
2018-07-24T10:08:01.238Z,11.83
2018-07-24T10:10:30.002Z,12.20
2018-07-24T10:12:58.822Z,14.60
2018-07-24T10:15:28.182Z,11.87
2018-07-24T10:17:57.193Z,12.43
2018-07-24T10:20:25.923Z,14.10
2018-07-24T10:22:54.630Z,12.47
2018-07-24T10:25:23.485Z,13.27
2018-07-24T10:27:52.235Z,12.70
2018-07-24T10:30:22.093Z,10.47
2018-07-24T10:32:51.004Z,9.20
2018-07-24T10:35:19.874Z,9.60
2018-07-24T10:37:48.635Z,9.47
2018-07-24T10:40:17.387Z,9.07
2018-07-24T10:42:46.595Z,8.50
2018-07-24T10:45:15.683Z,8.07
2018-07-24T10:47:44.448Z,9.83
2018-07-24T10:50:13.322Z,9.53
2018-07-24T10:52:42.626Z,11.60
2018-07-24T10:55:11.413Z,11.73
2018-07-24T10:57:40.271Z,10.03
2018-07-24T11:00:09.256Z,10.60
2018-07-24T11:02:38.017Z,9.93
2018-07-24T11:05:06.819Z,12.47
2018-07-24T11:07:35.772Z,10.20
2018-07-24T11:10:04.976Z,16.63
2018-07-24T11:12:34.460Z,10.07
2018-07-24T11:15:03.882Z,10.93
2018-07-24T11:17:33.451Z,9.90
2018-07-24T11:20:02.346Z,17.53
2018-07-24T11:22:31.265Z,10.17
2018-07-24T11:25:00.182Z,10.87
2018-07-24T11:27:29.010Z,10.17
2018-07-24T11:29:58.457Z,11.63
2018-07-24T11:32:27.273Z,12.53
2018-07-24T11:34:56.047Z,10.30
2018-07-24T11:37:24.801Z,9.90
2018-07-24T11:39:53.718Z,9.97
2018-07-24T11:42:22.707Z,10.50
2018-07-24T11:44:51.539Z,14.37
2018-07-24T11:47:20.386Z,14.27
2018-07-24T11:49:49.091Z,10.87
2018-07-24T11:52:18.249Z,11.70
2018-07-24T11:54:47.059Z,11.53
2018-07-24T11:57:15.982Z,11.47
2018-07-24T11:59:44.809Z,10.17
2018-07-24T12:02:13.665Z,10.20
2018-07-24T12:04:42.537Z,10.23
2018-07-24T12:07:11.602Z,8.80
2018-07-24T12:09:40.731Z,8.97
2018-07-24T12:12:09.586Z,9.47
2018-07-24T12:14:38.529Z,10.30
2018-07-24T12:17:08.149Z,10.13
2018-07-24T12:19:37.224Z,10.37
2018-07-24T12:22:06.329Z,12.17
2018-07-24T12:24:35.194Z,11.43
2018-07-24T12:27:06.904Z,12.77
2018-07-24T12:29:35.856Z,12.43
2018-07-24T12:32:04.755Z,11.80
2018-07-24T12:34:33.700Z,12.87
2018-07-24T12:37:02.719Z,13.67
2018-07-24T12:39:31.616Z,14.07
2018-07-24T12:42:00.890Z,11.53
2018-07-24T12:44:29.759Z,11.50
2018-07-24T12:46:58.576Z,15.90
2018-07-24T12:49:27.395Z,10.80
2018-07-24T12:51:56.354Z,14.63
2018-07-24T12:54:25.312Z,12.73
2018-07-24T12:56:54.287Z,9.97
2018-07-24T12:59:23.432Z,9.07
2018-07-24T13:01:52.473Z,9.63
2018-07-24T13:04:21.387Z,12.70
2018-07-24T13:06:50.321Z,12.50
2018-07-24T13:09:19.229Z,14.07
2018-07-24T13:11:48.122Z,18.23
2018-07-24T13:14:17.001Z,17.00
2018-07-24T13:16:45.828Z,16.20
2018-07-24T13:19:14.696Z,15.63
2018-07-24T13:21:43.514Z,21.63
2018-07-24T13:24:12.330Z,14.77
2018-07-24T13:26:41.165Z,14.27
2018-07-24T13:29:10.101Z,14.80
2018-07-24T13:31:38.972Z,15.23
2018-07-24T13:34:07.872Z,15.80
2018-07-24T13:36:36.752Z,15.13
2018-07-24T13:39:08.496Z,16.20
2018-07-24T13:41:37.317Z,18.83
2018-07-24T13:44:06.341Z,21.70
2018-07-24T13:46:35.120Z,18.20
2018-07-24T13:49:04.305Z,23.17
2018-07-24T13:51:33.178Z,23.30
2018-07-24T13:54:02.962Z,18.27
2018-07-24T13:56:31.744Z,34.00
2018-07-24T13:59:00.675Z,17.67
2018-07-24T14:01:29.609Z,23.00
2018-07-24T14:03:59.209Z,19.37
2018-07-24T14:06:28.137Z,20.27
2018-07-24T14:08:56.942Z,21.53
2018-07-24T14:11:25.811Z,21.27
2018-07-24T14:13:54.634Z,19.20
2018-07-24T14:16:23.597Z,20.57
2018-07-24T14:18:52.821Z,23.33
2018-07-24T14:21:21.616Z,18.83
2018-07-24T14:23:50.476Z,17.83
2018-07-24T14:26:19.477Z,16.67
2018-07-24T14:28:48.282Z,18.33
2018-07-24T14:31:17.261Z,17.43
2018-07-24T14:33:46.132Z,18.17
2018-07-24T14:36:14.982Z,17.37
2018-07-24T14:38:43.905Z,16.33
2018-07-24T14:41:12.760Z,15.47
2018-07-24T14:43:41.817Z,15.50
2018-07-24T14:46:10.657Z,15.80
2018-07-24T14:48:41.138Z,15.77
2018-07-24T14:51:10.154Z,16.00
2018-07-24T14:53:39.037Z,14.03
2018-07-24T14:56:07.909Z,13.30
2018-07-24T14:58:36.743Z,14.73
2018-07-24T15:01:05.694Z,12.93
2018-07-24T15:03:34.564Z,12.40
2018-07-24T15:06:03.329Z,13.93
2018-07-24T15:08:32.206Z,9.17
2018-07-24T15:11:00.948Z,9.43
2018-07-24T15:13:29.733Z,11.93
2018-07-24T15:15:59.037Z,10.03
2018-07-24T15:18:27.748Z,11.00
2018-07-24T15:20:56.616Z,12.10
2018-07-24T15:23:25.393Z,11.77
2018-07-24T15:25:54.165Z,14.33
2018-07-24T15:28:23.043Z,15.00
2018-07-24T15:30:51.804Z,12.40
2018-07-24T15:33:20.634Z,11.07
2018-07-24T15:35:49.509Z,13.83
2018-07-24T15:38:18.397Z,13.23
2018-07-24T15:40:47.606Z,13.77
2018-07-24T15:43:17.208Z,13.13
2018-07-24T15:45:46.094Z,13.10
2018-07-24T15:48:14.924Z,14.23
2018-07-24T15:50:43.827Z,13.53
2018-07-24T15:53:12.696Z,14.33
2018-07-24T15:55:41.548Z,14.30
2018-07-24T15:58:10.414Z,13.33
2018-07-24T16:00:39.367Z,19.77
2018-07-24T16:03:08.223Z,15.00
2018-07-24T16:05:43.582Z,14.30
2018-07-24T16:08:12.374Z,14.00
2018-07-24T16:10:41.158Z,14.77
2018-07-24T16:13:09.965Z,13.93
2018-07-24T16:15:40.129Z,14.53
2018-07-24T16:18:09.095Z,14.50
2018-07-24T16:20:38.185Z,15.27
2018-07-24T16:23:07.237Z,15.20
2018-07-24T16:25:36.010Z,14.40
2018-07-24T16:28:05.008Z,14.83
2018-07-24T16:30:33.837Z,16.00
2018-07-24T16:33:02.603Z,15.40
2018-07-24T16:35:31.371Z,15.93
2018-07-24T16:38:00.200Z,16.07
2018-07-24T16:40:29.110Z,16.03
2018-07-24T16:42:58.429Z,15.43
2018-07-24T16:45:27.310Z,15.00
2018-07-24T16:47:56.195Z,15.67
2018-07-24T16:50:25.017Z,15.83
2018-07-24T16:52:54.050Z,16.53
2018-07-24T16:55:22.864Z,17.63
2018-07-24T16:57:52.132Z,17.27
2018-07-24T17:00:21.149Z,21.67
2018-07-24T17:02:49.988Z,17.60
2018-07-24T17:05:18.983Z,17.27
2018-07-24T17:07:47.766Z,16.63
2018-07-24T17:10:16.581Z,18.43
2018-07-24T17:12:51.963Z,18.77
2018-07-24T17:15:20.810Z,21.47
2018-07-24T17:17:49.578Z,18.27
2018-07-24T17:20:18.333Z,23.67
2018-07-24T17:22:47.620Z,20.70
2018-07-24T17:25:16.495Z,18.33
2018-07-24T17:27:45.349Z,19.67
2018-07-24T17:30:15.066Z,17.03
2018-07-24T17:32:43.934Z,18.07
2018-07-24T17:35:12.874Z,15.47
2018-07-24T17:37:42.078Z,17.97
2018-07-24T17:40:10.936Z,18.53
2018-07-24T17:42:39.813Z,18.87
2018-07-24T17:45:08.665Z,17.43
2018-07-24T17:47:38.381Z,18.23
2018-07-24T17:50:07.642Z,19.37
2018-07-24T17:52:36.494Z,17.83
2018-07-24T17:55:05.712Z,18.47
2018-07-24T17:57:34.572Z,16.10
2018-07-24T18:00:05.366Z,18.93
2018-07-24T18:02:34.431Z,16.73
2018-07-24T18:05:03.308Z,16.63
2018-07-24T18:07:32.175Z,19.30
2018-07-24T18:10:01.557Z,17.87
2018-07-24T18:12:30.457Z,18.03
2018-07-24T18:14:59.409Z,19.60
2018-07-24T18:17:28.370Z,18.37
2018-07-24T18:19:57.474Z,20.03
2018-07-24T18:22:26.260Z,43.20
2018-07-24T18:24:55.026Z,22.73
2018-07-24T18:27:24.370Z,22.53
2018-07-24T18:29:53.250Z,18.57
2018-07-24T18:32:25.132Z,19.63
2018-07-24T18:34:54.306Z,17.27
2018-07-24T18:37:23.498Z,19.30
2018-07-24T18:39:54.854Z,33.30
2018-07-24T18:42:23.964Z,25.67
2018-07-24T18:44:52.773Z,19.57
2018-07-24T18:47:22.104Z,22.90
2018-07-24T18:49:51.172Z,18.20
2018-07-24T18:52:19.995Z,16.23
2018-07-24T18:54:48.925Z,15.37
2018-07-24T18:57:17.663Z,17.60
2018-07-24T18:59:46.448Z,17.77
2018-07-24T19:02:15.285Z,16.10
2018-07-24T19:04:44.474Z,16.57
2018-07-24T19:07:13.262Z,15.37
2018-07-24T19:09:42.088Z,16.23
2018-07-24T19:12:11.095Z,16.50
2018-07-24T19:14:39.871Z,16.03
2018-07-24T19:17:08.811Z,16.70
2018-07-24T19:19:42.531Z,18.03
2018-07-24T19:22:11.427Z,15.40
2018-07-24T19:24:40.229Z,15.87
2018-07-24T19:27:08.969Z,14.73
2018-07-24T19:29:37.900Z,16.20
2018-07-24T19:32:07.088Z,17.10
2018-07-24T19:34:37.533Z,14.87
2018-07-24T19:37:06.305Z,15.53
2018-07-24T19:39:35.520Z,15.10
2018-07-24T19:42:04.329Z,14.13
2018-07-24T19:44:33.634Z,15.23
2018-07-24T19:47:02.452Z,15.13
2018-07-24T19:49:31.419Z,18.27
2018-07-24T19:52:00.329Z,18.40
2018-07-24T19:54:29.180Z,15.80
2018-07-24T19:56:57.981Z,15.73
2018-07-24T19:59:26.845Z,16.10
2018-07-24T20:01:55.638Z,15.53
2018-07-24T20:04:24.808Z,15.83
2018-07-24T20:06:53.637Z,16.10
2018-07-24T20:09:22.847Z,15.70
2018-07-24T20:11:51.644Z,15.20
2018-07-24T20:14:20.489Z,13.93
2018-07-24T20:16:49.293Z,15.57
2018-07-24T20:19:18.011Z,17.70
2018-07-24T20:21:46.978Z,17.17
2018-07-24T20:24:15.823Z,16.20
2018-07-24T20:26:44.574Z,17.13
2018-07-24T20:29:13.358Z,17.53
2018-07-24T20:31:42.535Z,15.73
2018-07-24T20:34:11.381Z,17.93
2018-07-24T20:36:40.224Z,16.00
2018-07-24T20:39:10.968Z,17.77
2018-07-24T20:41:40.158Z,18.17
2018-07-24T20:44:09.409Z,18.17
2018-07-24T20:46:38.153Z,18.77
2018-07-24T20:49:07.128Z,16.97
2018-07-24T20:51:36.033Z,17.27
2018-07-24T20:54:04.817Z,15.97
2018-07-24T20:56:34.058Z,16.60
2018-07-24T20:59:03.038Z,16.80
2018-07-24T21:01:31.909Z,15.60
2018-07-24T21:04:00.837Z,16.73
2018-07-24T21:06:29.647Z,16.87
2018-07-24T21:08:58.498Z,18.07
2018-07-24T21:11:27.313Z,19.97
2018-07-24T21:13:56.138Z,17.30
2018-07-24T21:16:24.948Z,20.70
2018-07-24T21:18:53.825Z,17.37
2018-07-24T21:21:22.624Z,18.43
2018-07-24T21:23:51.510Z,17.87
2018-07-24T21:26:20.299Z,17.67
2018-07-24T21:28:49.053Z,18.23
2018-07-24T21:31:17.875Z,17.40
2018-07-24T21:33:46.653Z,17.17
2018-07-24T21:36:15.431Z,15.70
2018-07-24T21:38:44.213Z,17.37
2018-07-24T21:41:13.004Z,18.03
2018-07-24T21:43:41.777Z,18.50
2018-07-24T21:46:10.542Z,18.30
2018-07-24T21:48:39.336Z,19.83
2018-07-24T21:51:08.091Z,19.63
2018-07-24T21:53:36.975Z,18.70
2018-07-24T21:56:05.743Z,19.53
2018-07-24T21:58:34.514Z,18.73
2018-07-24T22:01:10.900Z,19.53
2018-07-24T22:03:39.688Z,17.33
2018-07-24T22:06:08.911Z,19.13
2018-07-24T22:08:37.984Z,19.90
2018-07-24T22:11:07.274Z,19.80
2018-07-24T22:13:36.594Z,18.57
2018-07-24T22:16:05.456Z,20.10
2018-07-24T22:18:34.306Z,20.03
2018-07-24T22:21:03.051Z,20.80
2018-07-24T22:23:31.804Z,18.53
2018-07-24T22:26:00.568Z,21.17
2018-07-24T22:28:29.357Z,18.60
2018-07-24T22:30:58.175Z,19.03
2018-07-24T22:33:27.290Z,19.97
2018-07-24T22:35:56.071Z,19.67
2018-07-24T22:38:24.834Z,19.27
2018-07-24T22:40:53.595Z,20.10
2018-07-24T22:43:22.356Z,20.10
2018-07-24T22:45:51.138Z,19.67
2018-07-24T22:48:19.978Z,22.33
2018-07-24T22:50:48.756Z,20.80
2018-07-24T22:53:17.539Z,20.53
2018-07-24T22:55:46.278Z,20.57
2018-07-24T22:58:14.995Z,20.50
2018-07-24T23:00:43.949Z,17.80
2018-07-24T23:03:12.697Z,19.80
2018-07-24T23:05:41.467Z,18.50
2018-07-24T23:08:10.170Z,18.33
2018-07-24T23:10:38.962Z,19.73
2018-07-24T23:13:08.114Z,18.63
2018-07-24T23:15:36.936Z,20.10
2018-07-24T23:18:05.965Z,20.97
2018-07-24T23:20:34.669Z,22.57
2018-07-24T23:23:03.435Z,19.97
2018-07-24T23:25:32.200Z,19.70
2018-07-24T23:28:00.970Z,20.90
2018-07-24T23:30:29.784Z,22.07
2018-07-24T23:32:58.534Z,20.57
2018-07-24T23:35:27.238Z,21.53
2018-07-24T23:37:56.048Z,21.90
2018-07-24T23:40:24.836Z,22.43
2018-07-24T23:42:53.572Z,19.37
2018-07-24T23:45:22.367Z,20.60
2018-07-24T23:47:51.141Z,20.90
2018-07-24T23:50:19.885Z,21.00
2018-07-24T23:52:48.653Z,20.10
2018-07-24T23:55:17.394Z,20.40
2018-07-24T23:57:46.527Z,19.90
